^^
Station Historical Data
Daily Summary for January 31, 2017 Units:  English    Metric   Both
« Previous Day
Next Day »
Daily Weekly Monthly Yearly Custom
  High: Low: Average:
Temperature: 32.1 °F 21.0 °F 26.7 °F
Dew Point: 24.7 °F 14.5 °F 19.4 °F
Humidity: 85 % 63 % 74 %
Wind Speed: 4.6 mph 0.0 mph 0.8 mph
Wind Gust: 8.1 mph - -
Wind:- - ESE
Pressure: 30.04 in 29.75 in -
Precipitation: 0.00 in    
Historical Graphs
 
 
Tabular Data for January 31, 2017
Time Temperature Dew Point Pressure Wind Wind Speed Wind Gust Humidity Rainfall Rate (Hourly) solar Conditions
00:03 23.7 °F 18.7 °F 30.00 in WSW 4.6 mph 4.6 mph 81 % 0.00 in 0.0 W/m2 CLR
00:08 23.7 °F 18.7 °F 30.00 in WSW 3.3 mph 6.0 mph 81 % 0.00 in 0.0 W/m2 CLR
00:14 23.6 °F 18.3 °F 30.00 in Calm   3.5 mph 80 % 0.00 in 0.0 W/m2 CLR
00:19 23.4 °F 17.8 °F 30.00 in WSW 0.9 mph 3.5 mph 79 % 0.00 in 0.0 W/m2 CLR
00:24 23.2 °F 17.7 °F 30.00 in WSW 0.5 mph 2.3 mph 79 % 0.00 in 0.0 W/m2 CLR
00:29 23.1 °F 17.6 °F 30.00 in Calm   2.3 mph 79 % 0.00 in 0.0 W/m2 CLR
00:34 22.8 °F 17.0 °F 29.99 in Calm     78 % 0.00 in 0.0 W/m2 CLR
00:39 22.7 °F 16.9 °F 29.99 in Calm     78 % 0.00 in 0.0 W/m2 CLR
00:44 22.8 °F 17.0 °F 29.98 in Calm     78 % 0.00 in 0.0 W/m2 CLR
00:49 22.7 °F 16.9 °F 29.98 in Calm     78 % 0.00 in 0.0 W/m2 CLR
00:54 22.4 °F 16.6 °F 29.98 in Calm     78 % 0.00 in 0.0 W/m2 CLR
00:59 22.3 °F 16.5 °F 29.98 in Calm     78 % 0.00 in 0.0 W/m2 CLR
01:04 22.0 °F 16.5 °F 29.98 in Calm     79 % 0.00 in 0.0 W/m2 CLR
01:09 21.9 °F 16.4 °F 29.98 in Calm     79 % 0.00 in 0.0 W/m2 CLR
01:14 21.8 °F 16.3 °F 29.99 in Calm     79 % 0.00 in 0.0 W/m2 CLR
01:19 21.3 °F 15.8 °F 30.00 in Calm     79 % 0.00 in 0.0 W/m2 CLR
01:24 21.0 °F 15.5 °F 30.01 in WSW 1.2 mph 3.5 mph 79 % 0.00 in 0.0 W/m2 CLR
01:29 21.2 °F 16.0 °F 30.02 in West 0.9 mph 3.5 mph 80 % 0.00 in 0.0 W/m2 CLR
01:34 21.4 °F 16.2 °F 30.02 in West 0.6 mph 3.5 mph 80 % 0.00 in 0.0 W/m2 CLR
01:39 21.6 °F 16.1 °F 30.02 in West 0.4 mph 4.0 mph 79 % 0.00 in 0.0 W/m2 CLR
01:44 21.7 °F 15.9 °F 30.03 in West 0.1 mph 3.5 mph 78 % 0.00 in 0.0 W/m2 CLR
01:49 21.8 °F 16.0 °F 30.03 in WSW 4.4 mph 8.1 mph 78 % 0.00 in 0.0 W/m2 CLR
01:54 21.8 °F 15.7 °F 30.03 in WSW 2.4 mph 4.6 mph 77 % 0.00 in 0.0 W/m2 CLR
01:59 21.6 °F 15.5 °F 30.04 in WSW 1.8 mph 3.5 mph 77 % 0.00 in 0.0 W/m2 CLR
02:04 21.5 °F 15.1 °F 30.04 in WSW 1.0 mph 2.3 mph 76 % 0.00 in 0.0 W/m2 CLR
02:09 21.6 °F 15.2 °F 30.03 in WSW 1.1 mph 3.5 mph 76 % 0.00 in 0.0 W/m2 CLR
02:14 21.6 °F 15.2 °F 30.03 in WSW 0.3 mph 2.3 mph 76 % 0.00 in 0.0 W/m2 CLR
02:19 21.4 °F 15.0 °F 30.03 in WSW 1.1 mph 3.5 mph 76 % 0.00 in 0.0 W/m2 CLR
02:24 21.3 °F 14.9 °F 30.04 in West 0.5 mph 2.3 mph 76 % 0.00 in 0.0 W/m2 CLR
02:29 21.3 °F 14.9 °F 30.03 in West 1.0 mph 3.5 mph 76 % 0.00 in 0.0 W/m2 CLR
02:34 21.2 °F 14.8 °F 30.03 in West 0.6 mph 2.3 mph 76 % 0.00 in 0.0 W/m2 CLR
02:39 21.2 °F 14.8 °F 30.03 in West 0.3 mph 1.2 mph 76 % 0.00 in 0.0 W/m2 CLR
02:44 21.3 °F 14.6 °F 30.03 in Calm     75 % 0.00 in 0.0 W/m2 CLR
02:49 21.3 °F 14.6 °F 30.04 in West 0.6 mph 2.3 mph 75 % 0.00 in 0.0 W/m2 CLR
02:54 21.2 °F 14.5 °F 30.03 in WSW 0.8 mph 2.3 mph 75 % 0.00 in 0.0 W/m2 CLR
02:59 21.2 °F 14.5 °F 30.03 in WSW 0.9 mph 1.2 mph 75 % 0.00 in 0.0 W/m2 CLR
03:04 21.3 °F 14.6 °F 30.03 in WSW 0.3 mph 3.5 mph 75 % 0.00 in 0.0 W/m2 CLR
03:09 21.4 °F 14.7 °F 30.03 in WSW 1.3 mph 3.5 mph 75 % 0.00 in 0.0 W/m2 CLR
03:14 21.6 °F 14.6 °F 30.03 in WSW 0.6 mph 2.3 mph 74 % 0.00 in 0.0 W/m2 CLR
03:19 21.6 °F 14.6 °F 30.02 in WSW 1.0 mph 3.5 mph 74 % 0.00 in 0.0 W/m2 CLR
03:24 21.7 °F 14.7 °F 30.02 in SW 2.2 mph 3.5 mph 74 % 0.00 in 0.0 W/m2 CLR
03:29 21.8 °F 14.5 °F 30.02 in SW 1.2 mph 3.5 mph 73 % 0.00 in 0.0 W/m2 CLR
03:34 21.9 °F 14.6 °F 30.01 in SW 0.1 mph 2.3 mph 73 % 0.00 in 0.0 W/m2 CLR
03:39 22.1 °F 14.8 °F 30.01 in Calm   1.2 mph 73 % 0.00 in 0.0 W/m2 CLR
03:44 22.2 °F 14.9 °F 30.01 in Calm     73 % 0.00 in 0.0 W/m2 CLR
03:49 22.3 °F 14.6 °F 30.00 in Calm     72 % 0.00 in 0.0 W/m2 CLR
03:54 22.3 °F 14.6 °F 30.00 in Calm     72 % 0.00 in 0.0 W/m2 CLR
03:59 22.5 °F 14.8 °F 30.00 in Calm     72 % 0.00 in 0.0 W/m2 CLR
04:04 22.5 °F 14.8 °F 29.99 in Calm     72 % 0.00 in 0.0 W/m2 CLR
04:09 22.4 °F 14.7 °F 30.00 in Calm     72 % 0.00 in 0.0 W/m2 CLR
04:14 22.2 °F 14.9 °F 29.99 in Calm     73 % 0.00 in 0.0 W/m2 CLR
04:19 22.2 °F 14.9 °F 29.99 in Calm     73 % 0.00 in 0.0 W/m2 CLR
04:24 22.2 °F 14.9 °F 29.99 in Calm     73 % 0.00 in 0.0 W/m2 CLR
04:29 22.1 °F 15.1 °F 29.99 in Calm     74 % 0.00 in 0.0 W/m2 CLR
04:34 22.0 °F 15.0 °F 29.99 in Calm     74 % 0.00 in 0.0 W/m2 CLR
04:39 21.9 °F 14.9 °F 29.99 in Calm     74 % 0.00 in 0.0 W/m2 CLR
04:44 22.0 °F 15.0 °F 29.99 in Calm     74 % 0.00 in 0.0 W/m2 CLR
04:49 22.0 °F 15.0 °F 29.99 in Calm     74 % 0.00 in 0.0 W/m2 CLR
04:54 22.0 °F 15.0 °F 29.99 in Calm     74 % 0.00 in 0.0 W/m2 CLR
04:59 22.0 °F 15.3 °F 29.98 in Calm     75 % 0.00 in 0.0 W/m2 CLR
05:04 22.0 °F 15.3 °F 29.98 in Calm     75 % 0.00 in 0.0 W/m2 CLR
05:09 21.9 °F 15.5 °F 29.98 in Calm     76 % 0.00 in 0.0 W/m2 CLR
05:14 21.9 °F 15.5 °F 29.98 in Calm     76 % 0.00 in 0.0 W/m2 CLR
05:19 22.0 °F 15.6 °F 29.97 in Calm     76 % 0.00 in 0.0 W/m2 CLR
05:24 21.9 °F 15.8 °F 29.97 in Calm     77 % 0.00 in 0.0 W/m2 CLR
05:30 21.9 °F 15.8 °F 29.96 in Calm     77 % 0.00 in 0.0 W/m2 CLR
05:35 22.4 °F 16.0 °F 29.96 in SW 0.1 mph   76 % 0.00 in 0.0 W/m2 CLR
05:40 22.6 °F 15.6 °F 29.96 in Calm     74 % 0.00 in 0.0 W/m2 CLR
05:45 22.5 °F 15.5 °F 29.96 in Calm   1.2 mph 74 % 0.00 in 0.0 W/m2 CLR
05:50 22.6 °F 15.2 °F 29.96 in Calm     73 % 0.00 in 0.0 W/m2 CLR
05:55 22.6 °F 15.2 °F 29.96 in Calm     73 % 0.00 in 0.0 W/m2 CLR
06:00 22.5 °F 15.1 °F 29.96 in Calm     73 % 0.00 in 0.0 W/m2 CLR
06:05 22.4 °F 14.7 °F 29.96 in Calm     72 % 0.00 in 0.0 W/m2 CLR
06:10 22.3 °F 14.6 °F 29.96 in Calm     72 % 0.00 in 0.0 W/m2 CLR
06:15 22.3 °F 14.6 °F 29.96 in Calm     72 % 0.00 in 0.0 W/m2 CLR
06:20 22.4 °F 14.7 °F 29.96 in Calm     72 % 0.00 in 0.0 W/m2 CLR
06:25 22.2 °F 14.9 °F 29.95 in Calm     73 % 0.00 in 0.0 W/m2 CLR
06:30 21.9 °F 14.9 °F 29.95 in Calm     74 % 0.00 in 0.0 W/m2 CLR
06:35 22.1 °F 15.1 °F 29.95 in Calm     74 % 0.00 in 0.0 W/m2 CLR
06:40 22.2 °F 15.2 °F 29.95 in Calm     74 % 0.00 in 0.0 W/m2 CLR
06:45 22.3 °F 15.0 °F 29.95 in Calm     73 % 0.00 in 0.0 W/m2 CLR
06:50 22.4 °F 14.7 °F 29.95 in Calm     72 % 0.00 in 0.0 W/m2 CLR
06:55 22.4 °F 14.7 °F 29.95 in Calm     72 % 0.00 in 0.0 W/m2 CLR
07:00 22.5 °F 15.1 °F 29.94 in Calm     73 % 0.00 in 0.0 W/m2 OVC
07:05 22.6 °F 14.9 °F 29.94 in Calm     72 % 0.00 in 0.0 W/m2 OVC
07:10 22.6 °F 14.9 °F 29.94 in SW 0.4 mph 2.3 mph 72 % 0.00 in 0.0 W/m2 OVC
07:15 22.8 °F 15.1 °F 29.94 in Calm     72 % 0.00 in 0.0 W/m2 OVC
07:20 23.1 °F 15.4 °F 29.94 in Calm     72 % 0.00 in 0.0 W/m2 OVC
07:25 23.3 °F 15.3 °F 29.93 in Calm     71 % 0.00 in 5.0 W/m2 OVC
07:30 23.6 °F 15.2 °F 29.93 in SW 0.1 mph 1.2 mph 70 % 0.00 in 7.0 W/m2 OVC
07:35 23.9 °F 15.5 °F 29.92 in SW 0.2 mph 2.3 mph 70 % 0.00 in 12.0 W/m2 CLR
07:40 24.0 °F 15.6 °F 29.92 in SW 0.8 mph 2.3 mph 70 % 0.00 in 16.0 W/m2 CLR
07:45 24.2 °F 15.5 °F 29.92 in ESE 0.9 mph 3.0 mph 69 % 0.00 in 14.0 W/m2 SCT
07:50 24.3 °F 15.3 °F 29.92 in ESE 0.2 mph 2.3 mph 68 % 0.00 in 12.0 W/m2 BKN
07:55 24.5 °F 15.4 °F 29.92 in ESE 0.1 mph   68 % 0.00 in 16.0 W/m2 BKN
08:00 24.7 °F 15.3 °F 29.92 in Calm   2.3 mph 67 % 0.00 in 18.0 W/m2 BKN
08:05 24.8 °F 15.4 °F 29.91 in Calm     67 % 0.00 in 21.0 W/m2 BKN
08:10 24.9 °F 15.1 °F 29.91 in ESE 0.2 mph 1.0 mph 66 % 0.00 in 25.0 W/m2 BKN
08:15 25.0 °F 14.9 °F 29.92 in ESE 0.5 mph 2.0 mph 65 % 0.00 in 16.0 W/m2 OVC
08:20 25.1 °F 14.6 °F 29.92 in Calm     64 % 0.00 in 18.0 W/m2 OVC
08:25 25.2 °F 14.7 °F 29.91 in SE 0.5 mph   64 % 0.00 in 33.0 W/m2 BKN
08:30 25.3 °F 14.8 °F 29.91 in Calm     64 % 0.00 in 32.0 W/m2 OVC
08:35 25.4 °F 14.5 °F 29.92 in SE 0.7 mph 2.3 mph 63 % 0.00 in 39.0 W/m2 BKN
08:40 25.5 °F 14.6 °F 29.91 in SSE 1.7 mph 3.5 mph 63 % 0.00 in 28.0 W/m2 OVC
08:45 25.5 °F 14.6 °F 29.91 in South 0.6 mph 3.5 mph 63 % 0.00 in 26.0 W/m2 OVC
08:50 25.5 °F 15.0 °F 29.92 in South 1.6 mph 5.0 mph 64 % 0.00 in 28.0 W/m2 OVC
08:55 25.5 °F 15.0 °F 29.92 in South 2.8 mph 3.5 mph 64 % 0.00 in 26.0 W/m2 OVC
09:00 25.3 °F 15.5 °F 29.92 in SSE 3.0 mph 5.8 mph 66 % 0.00 in 26.0 W/m2 OVC
09:05 25.1 °F 16.0 °F 29.92 in South 2.2 mph 5.8 mph 68 % 0.00 in 23.0 W/m2 OVC
09:10 25.1 °F 16.4 °F 29.91 in SSE 3.7 mph 8.1 mph 69 % 0.00 in 25.0 W/m2 OVC
09:15 25.0 °F 16.9 °F 29.91 in ESE 3.1 mph 4.6 mph 71 % 0.00 in 30.0 W/m2 OVC
09:20 25.1 °F 17.3 °F 29.90 in SE 2.9 mph 6.9 mph 72 % 0.00 in 37.0 W/m2 OVC
09:25 24.9 °F 17.1 °F 29.90 in SE 3.7 mph 6.9 mph 72 % 0.00 in 47.0 W/m2 OVC
09:30 25.0 °F 17.6 °F 29.90 in ESE 2.0 mph 4.0 mph 73 % 0.00 in 49.0 W/m2 OVC
09:35 25.1 °F 17.7 °F 29.90 in ESE 1.9 mph 3.5 mph 73 % 0.00 in 70.0 W/m2 OVC
09:40 25.1 °F 17.7 °F 29.90 in Calm   2.3 mph 73 % 0.00 in 56.0 W/m2 OVC
09:45 25.2 °F 18.1 °F 29.90 in East 0.2 mph 2.0 mph 74 % 0.00 in 58.0 W/m2 OVC
09:50 25.2 °F 18.1 °F 29.90 in East 0.6 mph 2.3 mph 74 % 0.00 in 56.0 W/m2 OVC
09:55 25.3 °F 18.2 °F 29.89 in East 2.1 mph 3.5 mph 74 % 0.00 in 60.0 W/m2 OVC
10:00 25.4 °F 18.3 °F 29.89 in East 1.8 mph 2.3 mph 74 % 0.00 in 62.0 W/m2 OVC
10:05 25.6 °F 18.5 °F 29.88 in ENE 2.5 mph 4.6 mph 74 % 0.00 in 63.0 W/m2 OVC
10:10 25.7 °F 18.6 °F 29.88 in ESE 0.6 mph 3.5 mph 74 % 0.00 in 60.0 W/m2 OVC
10:15 25.8 °F 18.7 °F 29.89 in ESE 0.3 mph 1.2 mph 74 % 0.00 in 49.0 W/m2 OVC
10:21 25.9 °F 18.7 °F 29.88 in NE 0.5 mph 2.3 mph 74 % 0.00 in 56.0 W/m2 OVC
10:26 26.0 °F 18.8 °F 29.88 in ENE 0.6 mph 2.0 mph 74 % 0.00 in 58.0 W/m2 OVC
10:31 26.2 °F 19.0 °F 29.87 in East 0.4 mph 2.3 mph 74 % 0.00 in 63.0 W/m2 OVC
10:36 26.2 °F 19.0 °F 29.87 in SE 0.5 mph 5.8 mph 74 % 0.00 in 79.0 W/m2 OVC
10:41 26.4 °F 19.2 °F 29.86 in East 0.4 mph 3.5 mph 74 % 0.00 in 56.0 W/m2 OVC
10:46 26.6 °F 19.4 °F 29.86 in ESE 1.9 mph 3.5 mph 74 % 0.00 in 70.0 W/m2 OVC
10:51 26.7 °F 19.2 °F 29.85 in ESE 1.7 mph 4.0 mph 73 % 0.00 in 104.0 W/m2 OVC
10:56 26.8 °F 19.3 °F 29.85 in ENE 2.6 mph 3.5 mph 73 % 0.00 in 102.0 W/m2 OVC
11:01 26.9 °F 19.4 °F 29.85 in East 0.3 mph 2.3 mph 73 % 0.00 in 111.0 W/m2 BKN
11:06 27.2 °F 19.4 °F 29.84 in East 2.9 mph 5.8 mph 72 % 0.00 in 97.0 W/m2 OVC
11:11 27.2 °F 19.4 °F 29.84 in East 1.8 mph 3.5 mph 72 % 0.00 in 79.0 W/m2 OVC
11:16 27.3 °F 19.1 °F 29.84 in ESE 3.8 mph 5.8 mph 71 % 0.00 in 60.0 W/m2 OVC
11:21 27.3 °F 19.1 °F 29.83 in ESE 2.2 mph 3.5 mph 71 % 0.00 in 58.0 W/m2 OVC
11:26 27.3 °F 19.1 °F 29.83 in SE 1.0 mph 3.5 mph 71 % 0.00 in 47.0 W/m2 OVC
11:31 27.4 °F 18.9 °F 29.83 in East 0.8 mph 3.5 mph 70 % 0.00 in 46.0 W/m2 OVC
11:36 27.5 °F 19.0 °F 29.83 in ESE 3.3 mph 5.8 mph 70 % 0.00 in 51.0 W/m2 OVC
11:41 27.5 °F 18.7 °F 29.82 in ESE 2.6 mph 4.6 mph 69 % 0.00 in 81.0 W/m2 OVC
11:46 27.7 °F 18.8 °F 29.81 in ESE 1.8 mph 5.8 mph 69 % 0.00 in 121.0 W/m2 BKN
11:51 27.7 °F 18.8 °F 29.81 in ESE 0.5 mph 3.5 mph 69 % 0.00 in 113.0 W/m2 OVC
11:56 28.0 °F 19.1 °F 29.81 in East 0.4 mph 2.3 mph 69 % 0.00 in 151.0 W/m2 BKN
12:01 28.3 °F 19.4 °F 29.81 in East 1.4 mph 3.5 mph 69 % 0.00 in 155.0 W/m2 BKN
12:06 28.5 °F 19.3 °F 29.80 in Calm     68 % 0.00 in 156.0 W/m2 BKN
12:11 28.5 °F 19.3 °F 29.80 in East 0.8 mph 2.3 mph 68 % 0.00 in 135.0 W/m2 BKN
12:16 28.5 °F 19.3 °F 29.79 in SE 1.8 mph 3.5 mph 68 % 0.00 in 153.0 W/m2 BKN
12:21 28.8 °F 19.6 °F 29.79 in ESE 1.0 mph 3.5 mph 68 % 0.00 in 179.0 W/m2 BKN
12:26 29.1 °F 19.5 °F 29.79 in ESE 0.1 mph 1.2 mph 67 % 0.00 in 169.0 W/m2 BKN
12:31 29.1 °F 19.5 °F 29.79 in ESE 0.9 mph 3.5 mph 67 % 0.00 in 165.0 W/m2 BKN
12:36 29.1 °F 19.2 °F 29.78 in Calm   1.0 mph 66 % 0.00 in 199.0 W/m2 BKN
12:41 29.3 °F 19.7 °F 29.78 in ENE 1.2 mph 3.0 mph 67 % 0.00 in 135.0 W/m2 BKN
12:46 29.4 °F 19.8 °F 29.78 in ESE 0.7 mph 3.5 mph 67 % 0.00 in 111.0 W/m2 BKN
12:51 29.4 °F 19.4 °F 29.78 in East 1.3 mph 3.5 mph 66 % 0.00 in 139.0 W/m2 BKN
12:56 29.5 °F 19.5 °F 29.78 in ENE 1.9 mph 3.5 mph 66 % 0.00 in 169.0 W/m2 BKN
13:01 29.5 °F 19.5 °F 29.78 in East 2.3 mph 3.5 mph 66 % 0.00 in 135.0 W/m2 BKN
13:06 29.7 °F 20.1 °F 29.77 in NE 1.3 mph 2.3 mph 67 % 0.00 in 125.0 W/m2 OVC
13:11 29.8 °F 20.2 °F 29.77 in NE 0.2 mph 2.3 mph 67 % 0.00 in 104.0 W/m2 OVC
13:16 29.8 °F 20.2 °F 29.76 in NE 0.8 mph 3.5 mph 67 % 0.00 in 91.0 W/m2 OVC
13:21 29.9 °F 20.3 °F 29.76 in NE 1.5 mph 6.0 mph 67 % 0.00 in 84.0 W/m2 OVC
13:26 29.9 °F 20.3 °F 29.76 in NE 0.8 mph 2.3 mph 67 % 0.00 in 84.0 W/m2 OVC
13:31 29.8 °F 20.2 °F 29.76 in ESE 0.4 mph 1.2 mph 67 % 0.00 in 53.0 W/m2 OVC
13:36 29.7 °F 20.1 °F 29.76 in ENE 1.0 mph 3.0 mph 67 % 0.00 in 47.0 W/m2 OVC
13:41 29.6 °F 20.0 °F 29.76 in NE 2.6 mph 3.5 mph 67 % 0.00 in 83.0 W/m2 OVC
13:46 29.6 °F 20.3 °F 29.76 in NE 1.4 mph 3.5 mph 68 % 0.00 in 105.0 W/m2 OVC
13:51 29.8 °F 20.9 °F 29.75 in NE 0.7 mph 1.0 mph 69 % 0.00 in 172.0 W/m2 BKN
13:56 29.9 °F 20.6 °F 29.75 in NE 0.9 mph 2.3 mph 68 % 0.00 in 209.0 W/m2 SCT
14:01 30.1 °F 20.8 °F 29.75 in NE 1.4 mph 4.0 mph 68 % 0.00 in 251.0 W/m2 SCT
14:06 30.3 °F 21.0 °F 29.75 in NNE 0.7 mph 3.5 mph 68 % 0.00 in 234.0 W/m2 SCT
14:11 30.6 °F 21.3 °F 29.75 in NE 1.9 mph 3.5 mph 68 % 0.00 in 174.0 W/m2 BKN
14:16 30.7 °F 21.4 °F 29.75 in NE 2.0 mph 3.5 mph 68 % 0.00 in 225.0 W/m2 SCT
14:21 30.9 °F 21.6 °F 29.75 in NE 0.2 mph 1.2 mph 68 % 0.00 in 229.0 W/m2 SCT
14:26 31.0 °F 21.3 °F 29.75 in ENE 2.0 mph 4.6 mph 67 % 0.00 in 248.0 W/m2 SCT
14:31 31.2 °F 21.5 °F 29.75 in ENE 0.2 mph 1.2 mph 67 % 0.00 in 185.0 W/m2 SCT
14:36 31.2 °F 21.5 °F 29.75 in NE 1.7 mph 2.3 mph 67 % 0.00 in 236.0 W/m2 SCT
14:42 31.2 °F 21.5 °F 29.75 in NE 2.5 mph 3.5 mph 67 % 0.00 in 137.0 W/m2 SCT
14:47 31.3 °F 21.6 °F 29.75 in Calm   2.3 mph 67 % 0.00 in 158.0 W/m2 BKN
14:52 31.3 °F 21.6 °F 29.75 in NE 0.2 mph 1.2 mph 67 % 0.00 in 132.0 W/m2 BKN
14:57 31.3 °F 22.0 °F 29.75 in NE 3.1 mph 3.1 mph 68 % 0.00 in 105.0 W/m2 BKN
15:02 31.3 °F 21.6 °F 29.76 in NE 0.7 mph 2.3 mph 67 % 0.00 in 230.0 W/m2 SCT
15:07 31.4 °F 21.7 °F 29.75 in Calm     67 % 0.00 in 221.0 W/m2 FEW
15:12 32.0 °F 22.3 °F 29.76 in NNE 1.2 mph 6.0 mph 67 % 0.00 in 197.0 W/m2 FEW
15:17 32.0 °F 22.3 °F 29.76 in NNE 2.7 mph 4.0 mph 67 % 0.00 in 127.0 W/m2 SCT
15:22 31.8 °F 22.1 °F 29.76 in NNE 3.1 mph 3.5 mph 67 % 0.00 in 77.0 W/m2 BKN
15:27 31.6 °F 21.9 °F 29.77 in NNE 1.2 mph 3.5 mph 67 % 0.00 in 86.0 W/m2 BKN
15:32 31.6 °F 21.9 °F 29.77 in NNE 2.4 mph 3.5 mph 67 % 0.00 in 83.0 W/m2 BKN
15:37 31.8 °F 22.4 °F 29.77 in NNE 3.3 mph 4.0 mph 68 % 0.00 in 107.0 W/m2 SCT
15:42 31.8 °F 22.4 °F 29.77 in NNE 0.6 mph 2.3 mph 68 % 0.00 in 105.0 W/m2 SCT
15:47 31.7 °F 22.0 °F 29.77 in NNE 2.0 mph 3.5 mph 67 % 0.00 in 107.0 W/m2 SCT
15:52 31.9 °F 22.5 °F 29.78 in NNE 1.7 mph 4.0 mph 68 % 0.00 in 84.0 W/m2 BKN
15:57 32.0 °F 22.6 °F 29.78 in Calm     68 % 0.00 in 134.0 W/m2 CLR
16:02 32.1 °F 22.4 °F 29.78 in NNE 3.4 mph 4.6 mph 67 % 0.00 in 60.0 W/m2 BKN
16:07 32.1 °F 22.4 °F 29.78 in NNE 2.8 mph 4.6 mph 67 % 0.00 in 51.0 W/m2 BKN
16:12 32.0 °F 22.6 °F 29.78 in NNE 2.6 mph 3.5 mph 68 % 0.00 in 25.0 W/m2 OVC
16:17 31.8 °F 22.4 °F 29.79 in NNE 1.6 mph 3.5 mph 68 % 0.00 in 67.0 W/m2 SCT
16:22 31.7 °F 22.7 °F 29.79 in NNE 1.5 mph 4.0 mph 69 % 0.00 in 54.0 W/m2 SCT
16:27 31.5 °F 22.5 °F 29.79 in NNE 3.5 mph 5.0 mph 69 % 0.00 in 28.0 W/m2 BKN
16:32 31.3 °F 22.3 °F 29.80 in Calm   2.3 mph 69 % 0.00 in 25.0 W/m2 BKN
16:37 31.2 °F 22.5 °F 29.80 in NNE 3.1 mph 4.6 mph 70 % 0.00 in 30.0 W/m2 BKN
16:42 31.2 °F 22.5 °F 29.80 in NNE 3.0 mph 4.6 mph 70 % 0.00 in 16.0 W/m2 BKN
16:47 31.0 °F 22.4 °F 29.80 in NNE 2.6 mph 4.6 mph 70 % 0.00 in 12.0 W/m2 OVC
16:52 31.0 °F 22.7 °F 29.80 in NNE 1.8 mph 4.0 mph 71 % 0.00 in 7.0 W/m2 OVC
16:57 31.0 °F 22.7 °F 29.80 in NNE 3.3 mph 3.5 mph 71 % 0.00 in 0.0 W/m2 OVC
17:02 30.9 °F 22.6 °F 29.80 in NNE 3.3 mph 5.0 mph 71 % 0.00 in 5.0 W/m2 OVC
17:07 30.9 °F 22.6 °F 29.80 in NNE 1.5 mph 2.3 mph 71 % 0.00 in 0.0 W/m2 OVC
17:12 30.9 °F 22.6 °F 29.81 in NNE 2.9 mph 4.6 mph 71 % 0.00 in 0.0 W/m2 OVC
17:17 30.8 °F 22.8 °F 29.81 in NNE 1.4 mph 2.3 mph 72 % 0.00 in 0.0 W/m2 OVC
17:22 30.9 °F 22.9 °F 29.81 in NNE 2.3 mph 3.5 mph 72 % 0.00 in 0.0 W/m2 OVC
17:27 30.8 °F 22.8 °F 29.81 in NNE 2.3 mph 3.5 mph 72 % 0.00 in 0.0 W/m2 OVC
17:32 30.7 °F 22.7 °F 29.81 in NNE 0.4 mph 1.0 mph 72 % 0.00 in 0.0 W/m2 OVC
17:37 30.7 °F 23.1 °F 29.82 in Calm   2.3 mph 73 % 0.00 in 0.0 W/m2 OVC
17:42 30.6 °F 23.0 °F 29.81 in NNE 3.4 mph 3.5 mph 73 % 0.00 in 0.0 W/m2 OVC
17:47 30.4 °F 22.8 °F 29.82 in NNE 1.0 mph 1.2 mph 73 % 0.00 in 0.0 W/m2 OVC
17:52 30.3 °F 23.0 °F 29.82 in Calm   1.2 mph 74 % 0.00 in 0.0 W/m2 CLR
17:57 30.3 °F 23.0 °F 29.82 in Calm   4.6 mph 74 % 0.00 in 0.0 W/m2 CLR
18:02 30.2 °F 22.9 °F 29.83 in NNE 0.5 mph 2.3 mph 74 % 0.00 in 0.0 W/m2 CLR
18:08 30.3 °F 23.3 °F 29.83 in North 1.5 mph 3.5 mph 75 % 0.00 in 0.0 W/m2 CLR
18:13 30.3 °F 23.3 °F 29.83 in North 1.1 mph 3.5 mph 75 % 0.00 in 0.0 W/m2 CLR
18:18 30.3 °F 23.3 °F 29.83 in Calm   2.3 mph 75 % 0.00 in 0.0 W/m2 CLR
18:23 30.2 °F 23.2 °F 29.83 in Calm   2.3 mph 75 % 0.00 in 0.0 W/m2 CLR
18:28 30.2 °F 23.5 °F 29.84 in Calm     76 % 0.00 in 0.0 W/m2 CLR
18:33 30.2 °F 23.5 °F 29.84 in Calm     76 % 0.00 in 0.0 W/m2 CLR
18:38 30.2 °F 23.5 °F 29.85 in Calm     76 % 0.00 in 0.0 W/m2 CLR
18:43 30.1 °F 23.4 °F 29.85 in Calm     76 % 0.00 in 0.0 W/m2 CLR
18:48 30.0 °F 23.4 °F 29.85 in Calm     76 % 0.00 in 0.0 W/m2 CLR
18:53 30.0 °F 23.4 °F 29.85 in Calm     76 % 0.00 in 0.0 W/m2 CLR
18:58 29.9 °F 23.6 °F 29.85 in North 1.3 mph 2.3 mph 77 % 0.00 in 0.0 W/m2 CLR
19:03 30.0 °F 23.7 °F 29.85 in Calm     77 % 0.00 in 0.0 W/m2 CLR
19:08 29.9 °F 23.9 °F 29.85 in Calm     78 % 0.00 in 0.0 W/m2 CLR
19:13 29.9 °F 23.9 °F 29.85 in Calm     78 % 0.00 in 0.0 W/m2 CLR
19:18 29.8 °F 23.8 °F 29.85 in North 1.1 mph 3.5 mph 78 % 0.00 in 0.0 W/m2 CLR
19:23 29.7 °F 23.7 °F 29.85 in North 0.8 mph 2.3 mph 78 % 0.00 in 0.0 W/m2 CLR
19:28 29.7 °F 24.0 °F 29.85 in North 0.3 mph 1.2 mph 79 % 0.00 in 0.0 W/m2 CLR
19:33 29.7 °F 24.0 °F 29.85 in North 3.0 mph 4.6 mph 79 % 0.00 in 0.0 W/m2 CLR
19:38 29.7 °F 24.0 °F 29.85 in North 1.3 mph 2.3 mph 79 % 0.00 in 0.0 W/m2 CLR
19:43 29.6 °F 23.9 °F 29.85 in Calm     79 % 0.00 in 0.0 W/m2 CLR
19:48 29.4 °F 24.0 °F 29.85 in Calm     80 % 0.00 in 0.0 W/m2 CLR
19:53 29.3 °F 23.9 °F 29.85 in Calm     80 % 0.00 in 0.0 W/m2 CLR
19:58 29.2 °F 23.8 °F 29.85 in Calm     80 % 0.00 in 0.0 W/m2 CLR
20:03 29.2 °F 23.8 °F 29.85 in Calm     80 % 0.00 in 0.0 W/m2 CLR
20:08 29.3 °F 24.2 °F 29.85 in Calm     81 % 0.00 in 0.0 W/m2 CLR
20:13 29.3 °F 24.2 °F 29.85 in Calm     81 % 0.00 in 0.0 W/m2 CLR
20:18 29.3 °F 24.2 °F 29.85 in Calm     81 % 0.00 in 0.0 W/m2 CLR
20:23 29.3 °F 24.2 °F 29.85 in Calm     81 % 0.00 in 0.0 W/m2 CLR
20:28 29.1 °F 24.0 °F 29.85 in Calm     81 % 0.00 in 0.0 W/m2 CLR
20:33 29.0 °F 23.9 °F 29.85 in Calm     81 % 0.00 in 0.0 W/m2 CLR
20:38 28.9 °F 23.8 °F 29.85 in Calm     81 % 0.00 in 0.0 W/m2 CLR
20:43 29.1 °F 24.3 °F 29.85 in Calm     82 % 0.00 in 0.0 W/m2 CLR
20:48 29.1 °F 24.3 °F 29.85 in Calm     82 % 0.00 in 0.0 W/m2 CLR
20:53 29.1 °F 24.3 °F 29.85 in Calm     82 % 0.00 in 0.0 W/m2 CLR
20:58 29.0 °F 24.2 °F 29.85 in Calm     82 % 0.00 in 0.0 W/m2 CLR
21:03 29.0 °F 24.2 °F 29.85 in Calm     82 % 0.00 in 0.0 W/m2 CLR
21:08 28.9 °F 24.1 °F 29.85 in Calm     82 % 0.00 in 0.0 W/m2 CLR
21:13 28.9 °F 24.4 °F 29.86 in Calm     83 % 0.00 in 0.0 W/m2 CLR
21:18 29.0 °F 24.2 °F 29.86 in Calm     82 % 0.00 in 0.0 W/m2 CLR
21:23 29.0 °F 24.2 °F 29.86 in Calm     82 % 0.00 in 0.0 W/m2 CLR
21:28 29.0 °F 24.5 °F 29.85 in Calm     83 % 0.00 in 0.0 W/m2 CLR
21:33 29.1 °F 24.6 °F 29.85 in Calm     83 % 0.00 in 0.0 W/m2 CLR
21:38 29.1 °F 24.6 °F 29.86 in Calm     83 % 0.00 in 0.0 W/m2 CLR
21:43 29.1 °F 24.6 °F 29.86 in Calm     83 % 0.00 in 0.0 W/m2 CLR
21:48 29.2 °F 24.7 °F 29.86 in Calm     83 % 0.00 in 0.0 W/m2 CLR
21:53 29.2 °F 24.7 °F 29.85 in Calm   1.2 mph 83 % 0.00 in 0.0 W/m2 CLR
21:58 29.2 °F 24.7 °F 29.85 in North 0.2 mph 1.0 mph 83 % 0.00 in 0.0 W/m2 CLR
22:03 29.2 °F 24.7 °F 29.86 in Calm     83 % 0.00 in 0.0 W/m2 CLR
22:08 29.1 °F 24.6 °F 29.85 in Calm     83 % 0.00 in 0.0 W/m2 CLR
22:13 28.9 °F 24.1 °F 29.85 in Calm     82 % 0.00 in 0.0 W/m2 CLR
22:18 28.7 °F 24.2 °F 29.85 in Calm     83 % 0.00 in 0.0 W/m2 CLR
22:24 28.5 °F 24.0 °F 29.85 in Calm     83 % 0.00 in 0.0 W/m2 CLR
22:29 28.3 °F 23.8 °F 29.85 in Calm     83 % 0.00 in 0.0 W/m2 CLR
22:34 28.2 °F 23.7 °F 29.85 in Calm     83 % 0.00 in 0.0 W/m2 CLR
22:39 28.3 °F 24.1 °F 29.85 in Calm     84 % 0.00 in 0.0 W/m2 CLR
22:44 28.5 °F 24.3 °F 29.85 in Calm     84 % 0.00 in 0.0 W/m2 CLR
22:49 28.5 °F 24.3 °F 29.85 in Calm     84 % 0.00 in 0.0 W/m2 CLR
22:54 28.5 °F 24.3 °F 29.85 in Calm     84 % 0.00 in 0.0 W/m2 CLR
22:59 28.4 °F 24.2 °F 29.86 in Calm     84 % 0.00 in 0.0 W/m2 CLR
23:04 28.3 °F 24.1 °F 29.86 in Calm     84 % 0.00 in 0.0 W/m2 CLR
23:09 28.3 °F 24.1 °F 29.86 in Calm     84 % 0.00 in 0.0 W/m2 CLR
23:14 28.3 °F 24.1 °F 29.86 in Calm     84 % 0.00 in 0.0 W/m2 CLR
23:19 28.2 °F 24.3 °F 29.85 in Calm     85 % 0.00 in 0.0 W/m2 CLR
23:24 28.3 °F 24.4 °F 29.85 in North 0.9 mph 2.3 mph 85 % 0.00 in 0.0 W/m2 CLR
23:29 28.2 °F 24.3 °F 29.85 in Calm     85 % 0.00 in 0.0 W/m2 CLR
23:34 28.1 °F 24.2 °F 29.85 in Calm     85 % 0.00 in 0.0 W/m2 CLR
23:39 28.0 °F 24.1 °F 29.86 in Calm     85 % 0.00 in 0.0 W/m2 CLR
23:44 27.9 °F 24.0 °F 29.86 in Calm     85 % 0.00 in 0.0 W/m2 CLR
23:49 28.0 °F 24.1 °F 29.86 in Calm     85 % 0.00 in 0.0 W/m2 CLR
23:54 28.0 °F 24.1 °F 29.86 in Calm     85 % 0.00 in 0.0 W/m2 CLR
23:59 28.0 °F 24.1 °F 29.86 in Calm     85 % 0.00 in 0.0 W/m2 CLR
Air Products Campus Weather
Compliments of Weather Underground - 3.5 mb